sensor_id;sensor_type;location;lat;lon;timestamp;pressure;altitude;pressure_sealevel;temperature
67599;BMP280;62026;39.230;9.122;2023-04-06T00:02:14;101249.59;;;12.22
67599;BMP280;62026;39.230;9.122;2023-04-06T00:04:40;101255.28;;;12.19
67599;BMP280;62026;39.230;9.122;2023-04-06T00:07:06;101241.88;;;12.14
67599;BMP280;62026;39.230;9.122;2023-04-06T00:09:32;101247.34;;;12.12
67599;BMP280;62026;39.230;9.122;2023-04-06T00:11:58;101246.09;;;12.08
67599;BMP280;62026;39.230;9.122;2023-04-06T00:14:24;101250.00;;;12.12
67599;BMP280;62026;39.230;9.122;2023-04-06T00:16:50;101250.63;;;12.14
67599;BMP280;62026;39.230;9.122;2023-04-06T00:19:16;101246.09;;;12.08
67599;BMP280;62026;39.230;9.122;2023-04-06T00:21:42;101241.25;;;12.12
67599;BMP280;62026;39.230;9.122;2023-04-06T00:24:08;101239.63;;;12.04
67599;BMP280;62026;39.230;9.122;2023-04-06T00:26:34;101235.97;;;12.05
67599;BMP280;62026;39.230;9.122;2023-04-06T00:29:00;101238.00;;;12.03
67599;BMP280;62026;39.230;9.122;2023-04-06T00:31:26;101234.94;;;12.06
67599;BMP280;62026;39.230;9.122;2023-04-06T00:33:52;101226.19;;;11.99
67599;BMP280;62026;39.230;9.122;2023-04-06T00:36:18;101228.22;;;11.97
67599;BMP280;62026;39.230;9.122;2023-04-06T00:38:45;101230.66;;;11.92
67599;BMP280;62026;39.230;9.122;2023-04-06T00:41:11;101234.53;;;11.83
67599;BMP280;62026;39.230;9.122;2023-04-06T00:43:37;101239.81;;;11.83
67599;BMP280;62026;39.230;9.122;2023-04-06T00:46:03;101233.06;;;11.87
67599;BMP280;62026;39.230;9.122;2023-04-06T00:48:29;101240.03;;;11.81
67599;BMP280;62026;39.230;9.122;2023-04-06T00:50:57;101233.72;;;11.82
67599;BMP280;62026;39.230;9.122;2023-04-06T00:53:24;101228.41;;;11.75
67599;BMP280;62026;39.230;9.122;2023-04-06T00:55:51;101233.50;;;11.77
67599;BMP280;62026;39.230;9.122;2023-04-06T00:58:17;101230.03;;;11.70
67599;BMP280;62026;39.230;9.122;2023-04-06T01:00:49;101225.56;;;11.70
67599;BMP280;62026;39.230;9.122;2023-04-06T01:03:18;101225.34;;;11.65
67599;BMP280;62026;39.230;9.122;2023-04-06T01:05:44;101213.16;;;11.64
67599;BMP280;62026;39.230;9.122;2023-04-06T01:08:18;101213.56;;;11.61
67599;BMP280;62026;39.230;9.122;2023-04-06T01:10:45;101214.38;;;11.62
67599;BMP280;62026;39.230;9.122;2023-04-06T01:13:21;101212.75;;;11.61
67599;BMP280;62026;39.230;9.122;2023-04-06T01:15:58;101218.44;;;11.64
67599;BMP280;62026;39.230;9.122;2023-04-06T01:18:30;101209.28;;;11.60
67599;BMP280;62026;39.230;9.122;2023-04-06T01:21:10;101202.16;;;11.54
67599;BMP280;62026;39.230;9.122;2023-04-06T01:23:46;101199.31;;;11.56
67599;BMP280;62026;39.230;9.122;2023-04-06T01:26:14;101202.16;;;11.54
67599;BMP280;62026;39.230;9.122;2023-04-06T01:28:41;101204.19;;;11.52
67599;BMP280;62026;39.230;9.122;2023-04-06T01:31:21;101195.63;;;11.50
67599;BMP280;62026;39.230;9.122;2023-04-06T01:33:50;101198.50;;;11.49
67599;BMP280;62026;39.230;9.122;2023-04-06T01:36:20;101202.16;;;11.54
67599;BMP280;62026;39.230;9.122;2023-04-06T01:38:52;101204.59;;;11.56
67599;BMP280;62026;39.230;9.122;2023-04-06T01:41:22;101206.63;;;11.60
67599;BMP280;62026;39.230;9.122;2023-04-06T01:43:52;101209.28;;;11.60
67599;BMP280;62026;39.230;9.122;2023-04-06T01:46:23;101208.66;;;11.58
67599;BMP280;62026;39.230;9.122;2023-04-06T01:48:50;101197.28;;;11.58
67599;BMP280;62026;39.230;9.122;2023-04-06T01:51:30;101197.28;;;11.58
67599;BMP280;62026;39.230;9.122;2023-04-06T01:54:00;101192.19;;;11.63
67599;BMP280;62026;39.230;9.122;2023-04-06T01:56:45;101196.06;;;11.60
67599;BMP280;62026;39.230;9.122;2023-04-06T01:59:43;101193.00;;;11.57
67599;BMP280;62026;39.230;9.122;2023-04-06T02:02:31;101194.84;;;11.56
67599;BMP280;62026;39.230;9.122;2023-04-06T02:05:05;101193.22;;;11.55
67599;BMP280;62026;39.230;9.122;2023-04-06T02:07:32;101191.16;;;11.51
67599;BMP280;62026;39.230;9.122;2023-04-06T02:09:59;101182.00;;;11.47
67599;BMP280;62026;39.230;9.122;2023-04-06T02:12:34;101183.44;;;11.49
67599;BMP280;62026;39.230;9.122;2023-04-06T02:15:00;101185.06;;;11.43
67599;BMP280;62026;39.230;9.122;2023-04-06T02:17:26;101191.97;;;11.38
67599;BMP280;62026;39.230;9.122;2023-04-06T02:19:52;101193.56;;;11.32
67599;BMP280;62026;39.230;9.122;2023-04-06T02:22:18;101193.16;;;11.29
67599;BMP280;62026;39.230;9.122;2023-04-06T02:24:44;101193.78;;;11.31
67599;BMP280;62026;39.230;9.122;2023-04-06T02:27:11;101191.53;;;11.28
67599;BMP280;62026;39.230;9.122;2023-04-06T02:29:37;101184.19;;;11.23
67599;BMP280;62026;39.230;9.122;2023-04-06T02:32:04;101193.97;;;11.23
67599;BMP280;62026;39.230;9.122;2023-04-06T02:34:31;101192.72;;;11.19
67599;BMP280;62026;39.230;9.122;2023-04-06T02:36:57;101192.72;;;11.12
67599;BMP280;62026;39.230;9.122;2023-04-06T02:39:24;101206.53;;;11.14
67599;BMP280;62026;39.230;9.122;2023-04-06T02:41:51;101204.69;;;11.15
67599;BMP280;62026;39.230;9.122;2023-04-06T02:44:21;101211.81;;;11.14
67599;BMP280;62026;39.230;9.122;2023-04-06T02:46:47;101203.69;;;11.16
67599;BMP280;62026;39.230;9.122;2023-04-06T02:49:13;101204.09;;;11.13
67599;BMP280;62026;39.230;9.122;2023-04-06T02:51:39;101209.38;;;11.13
67599;BMP280;62026;39.230;9.122;2023-04-06T02:54:27;101213.81;;;11.05
67599;BMP280;62026;39.230;9.122;2023-04-06T02:56:54;101218.72;;;11.08
67599;BMP280;62026;39.230;9.122;2023-04-06T02:59:21;101223.56;;;11.05
67599;BMP280;62026;39.230;9.122;2023-04-06T03:01:58;101217.88;;;11.01
67599;BMP280;62026;39.230;9.122;2023-04-06T03:04:25;101220.31;;;11.03
67599;BMP280;62026;39.230;9.122;2023-04-06T03:06:54;101218.25;;;10.98
67599;BMP280;62026;39.230;9.122;2023-04-06T03:09:31;101217.25;;;10.99
67599;BMP280;62026;39.230;9.122;2023-04-06T03:11:57;101215.84;;;11.03
67599;BMP280;62026;39.230;9.122;2023-04-06T03:14:27;101218.25;;;10.98
67599;BMP280;62026;39.230;9.122;2023-04-06T03:16:55;101211.50;;;10.89
67599;BMP280;62026;39.230;9.122;2023-04-06T03:19:23;101209.88;;;10.88
67599;BMP280;62026;39.230;9.122;2023-04-06T03:21:50;101208.47;;;10.92
67599;BMP280;62026;39.230;9.122;2023-04-06T03:24:18;101205.00;;;10.85
67599;BMP280;62026;39.230;9.122;2023-04-06T03:26:44;101206.00;;;10.84
67599;BMP280;62026;39.230;9.122;2023-04-06T03:29:10;101198.88;;;10.78
67599;BMP280;62026;39.230;9.122;2023-04-06T03:31:36;101197.84;;;10.79
67599;BMP280;62026;39.230;9.122;2023-04-06T03:34:23;101196.44;;;10.76
67599;BMP280;62026;39.230;9.122;2023-04-06T03:36:49;101195.34;;;10.71
67599;BMP280;62026;39.230;9.122;2023-04-06T03:39:15;101192.72;;;10.71
67599;BMP280;62026;39.230;9.122;2023-04-06T03:41:43;101193.75;;;10.70
67599;BMP280;62026;39.230;9.122;2023-04-06T03:44:29;101203.06;;;10.66
67599;BMP280;62026;39.230;9.122;2023-04-06T03:46:55;101200.63;;;10.71
67599;BMP280;62026;39.230;9.122;2023-04-06T03:49:21;101208.81;;;10.76
67599;BMP280;62026;39.230;9.122;2023-04-06T03:51:50;101202.72;;;10.75
67599;BMP280;62026;39.230;9.122;2023-04-06T03:54:16;101206.56;;;10.73
67599;BMP280;62026;39.230;9.122;2023-04-06T03:56:42;101201.91;;;10.75
67599;BMP280;62026;39.230;9.122;2023-04-06T03:59:08;101204.75;;;10.73
67599;BMP280;62026;39.230;9.122;2023-04-06T04:01:34;101201.50;;;10.78
67599;BMP280;62026;39.230;9.122;2023-04-06T04:04:02;101204.16;;;10.78
67599;BMP280;62026;39.230;9.122;2023-04-06T04:06:30;101210.63;;;10.75
67599;BMP280;62026;39.230;9.122;2023-04-06T04:08:56;101212.81;;;10.72
67599;BMP280;62026;39.230;9.122;2023-04-06T04:11:22;101205.72;;;10.66
67599;BMP280;62026;39.230;9.122;2023-04-06T04:13:54;101211.16;;;10.58
67599;BMP280;62026;39.230;9.122;2023-04-06T04:16:20;101212.09;;;10.43
67599;BMP280;62026;39.230;9.122;2023-04-06T04:18:46;101218.88;;;10.59
67599;BMP280;62026;39.230;9.122;2023-04-06T04:21:14;101213.50;;;10.46
67599;BMP280;62026;39.230;9.122;2023-04-06T04:23:40;101226.75;;;10.53
67599;BMP280;62026;39.230;9.122;2023-04-06T04:26:06;101223.25;;;10.45
67599;BMP280;62026;39.230;9.122;2023-04-06T04:28:33;101234.56;;;10.39
67599;BMP280;62026;39.230;9.122;2023-04-06T04:30:59;101233.41;;;10.49
67599;BMP280;62026;39.230;9.122;2023-04-06T04:33:28;101228.53;;;10.45
67599;BMP280;62026;39.230;9.122;2023-04-06T04:35:56;101231.72;;;10.41
67599;BMP280;62026;39.230;9.122;2023-04-06T04:38:25;101224.84;;;10.46
67599;BMP280;62026;39.230;9.122;2023-04-06T04:40:54;101231.28;;;10.37
67599;BMP280;62026;39.230;9.122;2023-04-06T04:43:21;101245.75;;;10.41
67599;BMP280;62026;39.230;9.122;2023-04-06T04:45:48;101254.94;;;10.45
67599;BMP280;62026;39.230;9.122;2023-04-06T04:48:26;101251.63;;;10.37
67599;BMP280;62026;39.230;9.122;2023-04-06T04:51:00;101255.81;;;10.31
67599;BMP280;62026;39.230;9.122;2023-04-06T04:53:33;101251.00;;;10.35
67599;BMP280;62026;39.230;9.122;2023-04-06T04:56:08;101246.69;;;10.27
67599;BMP280;62026;39.230;9.122;2023-04-06T04:58:34;101255.59;;;10.26
67599;BMP280;62026;39.230;9.122;2023-04-06T05:01:00;101257.03;;;10.29
67599;BMP280;62026;39.230;9.122;2023-04-06T05:03:27;101257.03;;;10.29
67599;BMP280;62026;39.230;9.122;2023-04-06T05:06:00;101257.63;;;10.31
67599;BMP280;62026;39.230;9.122;2023-04-06T05:08:31;101268.19;;;10.31
67599;BMP280;62026;39.230;9.122;2023-04-06T05:10:57;101277.53;;;10.33
67599;BMP280;62026;39.230;9.122;2023-04-06T05:13:24;101283.19;;;10.30
67599;BMP280;62026;39.230;9.122;2023-04-06T05:15:52;101292.75;;;10.31
67599;BMP280;62026;39.230;9.122;2023-04-06T05:18:28;101297.66;;;10.34
67599;BMP280;62026;39.230;9.122;2023-04-06T05:20:55;101306.34;;;10.28
67599;BMP280;62026;39.230;9.122;2023-04-06T05:23:28;101309.56;;;10.30
67599;BMP280;62026;39.230;9.122;2023-04-06T05:25:55;101300.66;;;10.31
67599;BMP280;62026;39.230;9.122;2023-04-06T05:28:22;101313.44;;;10.28
67599;BMP280;62026;39.230;9.122;2023-04-06T05:30:48;101301.41;;;10.25
67599;BMP280;62026;39.230;9.122;2023-04-06T05:33:15;101311.34;;;10.23
67599;BMP280;62026;39.230;9.122;2023-04-06T05:35:56;101312.97;;;10.24
67599;BMP280;62026;39.230;9.122;2023-04-06T05:38:23;101322.53;;;10.25
67599;BMP280;62026;39.230;9.122;2023-04-06T05:40:51;101309.19;;;10.33
67599;BMP280;62026;39.230;9.122;2023-04-06T05:43:20;101317.31;;;10.32
67599;BMP280;62026;39.230;9.122;2023-04-06T05:45:52;101321.00;;;10.37
67599;BMP280;62026;39.230;9.122;2023-04-06T05:48:18;101323.91;;;10.42
67599;BMP280;62026;39.230;9.122;2023-04-06T05:50:50;101337.31;;;10.48
67599;BMP280;62026;39.230;9.122;2023-04-06T05:53:20;101340.63;;;10.56
67599;BMP280;62026;39.230;9.122;2023-04-06T05:55:52;101334.88;;;10.67
67599;BMP280;62026;39.230;9.122;2023-04-06T05:58:20;101343.31;;;10.84
67599;BMP280;62026;39.230;9.122;2023-04-06T06:00:50;101344.41;;;10.96
67599;BMP280;62026;39.230;9.122;2023-04-06T06:03:19;101345.91;;;11.12
67599;BMP280;62026;39.230;9.122;2023-04-06T06:05:50;101349.69;;;11.31
67599;BMP280;62026;39.230;9.122;2023-04-06T06:08:24;101344.28;;;11.52
67599;BMP280;62026;39.230;9.122;2023-04-06T06:10:51;101348.22;;;11.69
67599;BMP280;62026;39.230;9.122;2023-04-06T06:13:21;101351.53;;;11.91
67599;BMP280;62026;39.230;9.122;2023-04-06T06:15:48;101350.09;;;12.08
67599;BMP280;62026;39.230;9.122;2023-04-06T06:18:16;101349.09;;;12.16
67599;BMP280;62026;39.230;9.122;2023-04-06T06:20:42;101349.56;;;12.33
67599;BMP280;62026;39.230;9.122;2023-04-06T06:23:09;101360.13;;;12.46
67599;BMP280;62026;39.230;9.122;2023-04-06T06:25:35;101358.91;;;12.62
67599;BMP280;62026;39.230;9.122;2023-04-06T06:28:02;101353.16;;;12.78
67599;BMP280;62026;39.230;9.122;2023-04-06T06:30:30;101359.03;;;12.93
67599;BMP280;62026;39.230;9.122;2023-04-06T06:32:56;101363.31;;;13.07
67599;BMP280;62026;39.230;9.122;2023-04-06T06:35:23;101367.75;;;13.27
67599;BMP280;62026;39.230;9.122;2023-04-06T06:37:49;101363.00;;;13.42
67599;BMP280;62026;39.230;9.122;2023-04-06T06:40:20;101367.47;;;13.48
67599;BMP280;62026;39.230;9.122;2023-04-06T06:42:49;101366.00;;;13.52
67599;BMP280;62026;39.230;9.122;2023-04-06T06:45:31;101368.59;;;13.97
67599;BMP280;62026;39.230;9.122;2023-04-06T06:47:58;101372.03;;;14.04
67599;BMP280;62026;39.230;9.122;2023-04-06T06:50:24;101382.72;;;14.22
67599;BMP280;62026;39.230;9.122;2023-04-06T06:52:50;101373.66;;;14.55
67599;BMP280;62026;39.230;9.122;2023-04-06T06:55:16;101371.66;;;14.68
67599;BMP280;62026;39.230;9.122;2023-04-06T06:57:45;101368.41;;;14.66
67599;BMP280;62026;39.230;9.122;2023-04-06T07:00:13;101368.50;;;15.15
67599;BMP280;62026;39.230;9.122;2023-04-06T07:02:41;101375.38;;;15.40
67599;BMP280;62026;39.230;9.122;2023-04-06T07:05:07;101364.00;;;15.63
67599;BMP280;62026;39.230;9.122;2023-04-06T07:07:33;101372.50;;;15.84
67599;BMP280;62026;39.230;9.122;2023-04-06T07:10:00;101374.84;;;16.03
67599;BMP280;62026;39.230;9.122;2023-04-06T07:12:27;101381.94;;;16.21
67599;BMP280;62026;39.230;9.122;2023-04-06T07:14:53;101387.75;;;16.41
67599;BMP280;62026;39.230;9.122;2023-04-06T07:17:19;101384.97;;;16.48
67599;BMP280;62026;39.230;9.122;2023-04-06T07:19:45;101385.75;;;16.83
67599;BMP280;62026;39.230;9.122;2023-04-06T07:22:12;101385.41;;;16.80
67599;BMP280;62026;39.230;9.122;2023-04-06T07:24:38;101386.94;;;17.16
67599;BMP280;62026;39.230;9.122;2023-04-06T07:27:04;101392.41;;;17.09
67599;BMP280;62026;39.230;9.122;2023-04-06T07:29:30;101392.84;;;17.18
67599;BMP280;62026;39.230;9.122;2023-04-06T07:31:57;101392.91;;;17.35
67599;BMP280;62026;39.230;9.122;2023-04-06T07:34:23;101382.59;;;17.55
67599;BMP280;62026;39.230;9.122;2023-04-06T07:36:49;101394.75;;;17.79
67599;BMP280;62026;39.230;9.122;2023-04-06T07:39:15;101392.19;;;17.84
67599;BMP280;62026;39.230;9.122;2023-04-06T07:41:41;101404.00;;;17.88
67599;BMP280;62026;39.230;9.122;2023-04-06T07:44:07;101407.63;;;18.16
67599;BMP280;62026;39.230;9.122;2023-04-06T07:46:34;101405.00;;;17.99
67599;BMP280;62026;39.230;9.122;2023-04-06T07:49:02;101402.38;;;18.04
67599;BMP280;62026;39.230;9.122;2023-04-06T07:51:30;101409.16;;;18.45
67599;BMP280;62026;39.230;9.122;2023-04-06T07:53:57;101407.72;;;18.21
67599;BMP280;62026;39.230;9.122;2023-04-06T07:56:23;101415.19;;;18.19
67599;BMP280;62026;39.230;9.122;2023-04-06T07:58:49;101416.56;;;18.05
67599;BMP280;62026;39.230;9.122;2023-04-06T08:01:15;101417.91;;;18.24
67599;BMP280;62026;39.230;9.122;2023-04-06T08:03:41;101417.09;;;18.40
67599;BMP280;62026;39.230;9.122;2023-04-06T08:06:07;101426.31;;;18.49
67599;BMP280;62026;39.230;9.122;2023-04-06T08:08:33;101419.25;;;18.43
67599;BMP280;62026;39.230;9.122;2023-04-06T08:10:59;101418.84;;;18.51
67599;BMP280;62026;39.230;9.122;2023-04-06T08:13:25;101426.59;;;18.31
67599;BMP280;62026;39.230;9.122;2023-04-06T08:15:51;101421.38;;;18.80
67599;BMP280;62026;39.230;9.122;2023-04-06T08:18:17;101420.25;;;19.19
67599;BMP280;62026;39.230;9.122;2023-04-06T08:20:43;101422.81;;;19.09
67599;BMP280;62026;39.230;9.122;2023-04-06T08:23:09;101429.69;;;19.27
67599;BMP280;62026;39.230;9.122;2023-04-06T08:25:36;101424.97;;;19.12
67599;BMP280;62026;39.230;9.122;2023-04-06T08:28:03;101431.56;;;19.26
67599;BMP280;62026;39.230;9.122;2023-04-06T08:30:30;101435.31;;;19.52
67599;BMP280;62026;39.230;9.122;2023-04-06T08:32:56;101430.09;;;19.67
67599;BMP280;62026;39.230;9.122;2023-04-06T08:35:22;101430.31;;;19.66
67599;BMP280;62026;39.230;9.122;2023-04-06T08:37:48;101435.75;;;19.71
67599;BMP280;62026;39.230;9.122;2023-04-06T08:40:14;101432.53;;;19.69
67599;BMP280;62026;39.230;9.122;2023-04-06T08:42:50;101434.53;;;19.89
67599;BMP280;62026;39.230;9.122;2023-04-06T08:45:17;101433.28;;;19.64
67599;BMP280;62026;39.230;9.122;2023-04-06T08:47:51;101426.75;;;19.87
67599;BMP280;62026;39.230;9.122;2023-04-06T08:50:18;101431.66;;;19.90
67599;BMP280;62026;39.230;9.122;2023-04-06T08:52:48;101432.31;;;20.07
67599;BMP280;62026;39.230;9.122;2023-04-06T08:55:15;101436.59;;;20.08
67599;BMP280;62026;39.230;9.122;2023-04-06T08:57:42;101428.16;;;20.32
67599;BMP280;62026;39.230;9.122;2023-04-06T09:00:11;101423.50;;;20.12
67599;BMP280;62026;39.230;9.122;2023-04-06T09:02:43;101428.41;;;20.25
67599;BMP280;62026;39.230;9.122;2023-04-06T09:05:12;101426.53;;;20.26
67599;BMP280;62026;39.230;9.122;2023-04-06T09:07:38;101422.66;;;20.11
67599;BMP280;62026;39.230;9.122;2023-04-06T09:10:06;101428.69;;;20.29
67599;BMP280;62026;39.230;9.122;2023-04-06T09:12:33;101426.09;;;20.49
67599;BMP280;62026;39.230;9.122;2023-04-06T09:15:00;101425.22;;;20.33
67599;BMP280;62026;39.230;9.122;2023-04-06T09:17:32;101419.63;;;20.40
67599;BMP280;62026;39.230;9.122;2023-04-06T09:20:02;101425.34;;;20.54
67599;BMP280;62026;39.230;9.122;2023-04-06T09:22:37;101432.03;;;20.56
67599;BMP280;62026;39.230;9.122;2023-04-06T09:25:04;101425.09;;;20.60
67599;BMP280;62026;39.230;9.122;2023-04-06T09:27:36;101421.31;;;20.51
67599;BMP280;62026;39.230;9.122;2023-04-06T09:30:08;101422.41;;;20.55
67599;BMP280;62026;39.230;9.122;2023-04-06T09:35:17;101418.03;;;19.97
67599;BMP280;62026;39.230;9.122;2023-04-06T09:37:44;101418.78;;;20.29
67599;BMP280;62026;39.230;9.122;2023-04-06T09:40:10;101410.91;;;20.18
67599;BMP280;62026;39.230;9.122;2023-04-06T09:42:37;101419.22;;;20.16
67599;BMP280;62026;39.230;9.122;2023-04-06T09:45:03;101420.34;;;20.20
67599;BMP280;62026;39.230;9.122;2023-04-06T09:47:35;101409.47;;;20.47
67599;BMP280;62026;39.230;9.122;2023-04-06T09:50:03;101413.75;;;20.43
67599;BMP280;62026;39.230;9.122;2023-04-06T09:52:38;101413.25;;;20.56
67599;BMP280;62026;39.230;9.122;2023-04-06T09:55:07;101407.88;;;20.46
67599;BMP280;62026;39.230;9.122;2023-04-06T09:58:04;101411.69;;;20.60
67599;BMP280;62026;39.230;9.122;2023-04-06T10:00:42;101400.38;;;20.53
67599;BMP280;62026;39.230;9.122;2023-04-06T10:03:17;101409.13;;;20.80
67599;BMP280;62026;39.230;9.122;2023-04-06T10:05:57;101414.91;;;20.62
67599;BMP280;62026;39.230;9.122;2023-04-06T10:08:33;101416.31;;;20.75
67599;BMP280;62026;39.230;9.122;2023-04-06T10:11:01;101414.97;;;20.67
67599;BMP280;62026;39.230;9.122;2023-04-06T10:13:28;101413.34;;;20.66
67599;BMP280;62026;39.230;9.122;2023-04-06T10:15:54;101411.75;;;20.75
67599;BMP280;62026;39.230;9.122;2023-04-06T10:18:21;101402.25;;;20.53
67599;BMP280;62026;39.230;9.122;2023-04-06T10:21:01;101416.13;;;20.39
67599;BMP280;62026;39.230;9.122;2023-04-06T10:23:44;101411.16;;;20.58
67599;BMP280;62026;39.230;9.122;2023-04-06T10:26:17;101416.19;;;20.44
67599;BMP280;62026;39.230;9.122;2023-04-06T10:28:46;101412.44;;;20.45
67599;BMP280;62026;39.230;9.122;2023-04-06T10:31:12;101412.63;;;20.39
67599;BMP280;62026;39.230;9.122;2023-04-06T10:33:39;101408.88;;;20.30
67599;BMP280;62026;39.230;9.122;2023-04-06T10:36:27;101408.22;;;20.13
67599;BMP280;62026;39.230;9.122;2023-04-06T10:38:59;101407.75;;;20.26
67599;BMP280;62026;39.230;9.122;2023-04-06T10:41:45;101405.63;;;20.28
67599;BMP280;62026;39.230;9.122;2023-04-06T10:44:24;101412.56;;;20.24
67599;BMP280;62026;39.230;9.122;2023-04-06T10:46:58;101403.81;;;20.01
67599;BMP280;62026;39.230;9.122;2023-04-06T10:49:27;101406.81;;;20.05
67599;BMP280;62026;39.230;9.122;2023-04-06T10:51:56;101404.53;;;19.82
67599;BMP280;62026;39.230;9.122;2023-04-06T10:54:25;101403.19;;;19.84
67599;BMP280;62026;39.230;9.122;2023-04-06T10:56:51;101405.66;;;19.91
67599;BMP280;62026;39.230;9.122;2023-04-06T10:59:21;101405.66;;;19.91
67599;BMP280;62026;39.230;9.122;2023-04-06T11:01:47;101399.50;;;19.90
67599;BMP280;62026;39.230;9.122;2023-04-06T11:04:17;101399.03;;;20.03
67599;BMP280;62026;39.230;9.122;2023-04-06T11:06:48;101390.38;;;19.91
67599;BMP280;62026;39.230;9.122;2023-04-06T11:09:29;101394.25;;;19.73
67599;BMP280;62026;39.230;9.122;2023-04-06T11:11:57;101391.00;;;19.71
67599;BMP280;62026;39.230;9.122;2023-04-06T11:14:23;101386.06;;;19.58
67599;BMP280;62026;39.230;9.122;2023-04-06T11:16:50;101392.69;;;19.46
67599;BMP280;62026;39.230;9.122;2023-04-06T11:19:17;101394.47;;;19.40
67599;BMP280;62026;39.230;9.122;2023-04-06T11:21:48;101393.59;;;19.29
67599;BMP280;62026;39.230;9.122;2023-04-06T11:24:20;101390.41;;;19.32
67599;BMP280;62026;39.230;9.122;2023-04-06T11:26:57;101383.16;;;19.33
67599;BMP280;62026;39.230;9.122;2023-04-06T11:29:27;101381.41;;;19.44
67599;BMP280;62026;39.230;9.122;2023-04-06T11:32:05;101396.81;;;19.31
67599;BMP280;62026;39.230;9.122;2023-04-06T11:34:39;101384.34;;;19.15
67599;BMP280;62026;39.230;9.122;2023-04-06T11:37:11;101383.19;;;19.06
67599;BMP280;62026;39.230;9.122;2023-04-06T11:39:42;101381.03;;;19.08
67599;BMP280;62026;39.230;9.122;2023-04-06T11:42:08;101378.69;;;18.90
67599;BMP280;62026;39.230;9.122;2023-04-06T11:44:35;101373.47;;;19.00
67599;BMP280;62026;39.230;9.122;2023-04-06T11:47:08;101365.56;;;18.88
67599;BMP280;62026;39.230;9.122;2023-04-06T11:49:43;101361.44;;;18.81
67599;BMP280;62026;39.230;9.122;2023-04-06T11:52:24;101363.75;;;18.50
67599;BMP280;62026;39.230;9.122;2023-04-06T11:54:52;101365.16;;;18.75
67599;BMP280;62026;39.230;9.122;2023-04-06T11:57:21;101349.03;;;18.70
67599;BMP280;62026;39.230;9.122;2023-04-06T11:59:50;101361.44;;;18.59
67599;BMP280;62026;39.230;9.122;2023-04-06T12:02:16;101365.78;;;18.60
67599;BMP280;62026;39.230;9.122;2023-04-06T12:04:43;101351.59;;;18.59
67599;BMP280;62026;39.230;9.122;2023-04-06T12:07:10;101343.56;;;18.59
67599;BMP280;62026;39.230;9.122;2023-04-06T12:09:36;101340.50;;;17.96
67599;BMP280;62026;39.230;9.122;2023-04-06T12:12:03;101338.06;;;18.27
67599;BMP280;62026;39.230;9.122;2023-04-06T12:14:29;101335.72;;;18.31
67599;BMP280;62026;39.230;9.122;2023-04-06T12:16:57;101339.00;;;18.38
67599;BMP280;62026;39.230;9.122;2023-04-06T12:19:24;101345.00;;;18.45
67599;BMP280;62026;39.230;9.122;2023-04-06T12:21:53;101342.88;;;18.47
67599;BMP280;62026;39.230;9.122;2023-04-06T12:24:20;101339.66;;;18.45
67599;BMP280;62026;39.230;9.122;2023-04-06T12:26:46;101344.47;;;18.48
67599;BMP280;62026;39.230;9.122;2023-04-06T12:29:12;101339.56;;;18.40
67599;BMP280;62026;39.230;9.122;2023-04-06T12:31:39;101333.41;;;18.40
67599;BMP280;62026;39.230;9.122;2023-04-06T12:34:07;101337.41;;;18.37
67599;BMP280;62026;39.230;9.122;2023-04-06T12:36:33;101332.50;;;18.34
67599;BMP280;62026;39.230;9.122;2023-04-06T12:39:00;101331.97;;;18.32
67599;BMP280;62026;39.230;9.122;2023-04-06T12:41:28;101332.06;;;18.37
67599;BMP280;62026;39.230;9.122;2023-04-06T12:43:54;101324.69;;;18.27
67599;BMP280;62026;39.230;9.122;2023-04-06T12:46:20;101317.72;;;18.26
67599;BMP280;62026;39.230;9.122;2023-04-06T12:48:46;101317.44;;;18.23
67599;BMP280;62026;39.230;9.122;2023-04-06T12:51:13;101311.81;;;18.24
67599;BMP280;62026;39.230;9.122;2023-04-06T12:53:39;101315.06;;;18.26
67599;BMP280;62026;39.230;9.122;2023-04-06T12:56:14;101319.28;;;18.22
67599;BMP280;62026;39.230;9.122;2023-04-06T12:58:41;101310.53;;;18.27
67599;BMP280;62026;39.230;9.122;2023-04-06T13:01:08;101314.56;;;18.30
67599;BMP280;62026;39.230;9.122;2023-04-06T13:03:34;101323.78;;;17.83
67599;BMP280;62026;39.230;9.122;2023-04-06T13:06:01;101326.28;;;17.40
67599;BMP280;62026;39.230;9.122;2023-04-06T13:08:27;101320.25;;;17.33
67599;BMP280;62026;39.230;9.122;2023-04-06T13:10:54;101313.47;;;17.25
67599;BMP280;62026;39.230;9.122;2023-04-06T13:13:25;101309.72;;;17.54
67599;BMP280;62026;39.230;9.122;2023-04-06T13:16:02;101307.34;;;17.13
67599;BMP280;62026;39.230;9.122;2023-04-06T13:18:30;101311.38;;;17.44
67599;BMP280;62026;39.230;9.122;2023-04-06T13:20:57;101306.13;;;17.49
67599;BMP280;62026;39.230;9.122;2023-04-06T13:23:23;101315.19;;;16.63
67599;BMP280;62026;39.230;9.122;2023-04-06T13:26:06;101314.31;;;16.22
67599;BMP280;62026;39.230;9.122;2023-04-06T13:28:35;101314.53;;;16.32
67599;BMP280;62026;39.230;9.122;2023-04-06T13:31:05;101312.31;;;16.41
67599;BMP280;62026;39.230;9.122;2023-04-06T13:33:31;101309.78;;;15.88
67599;BMP280;62026;39.230;9.122;2023-04-06T13:35:59;101318.88;;;15.92
67599;BMP280;62026;39.230;9.122;2023-04-06T13:38:25;101311.38;;;16.35
67599;BMP280;62026;39.230;9.122;2023-04-06T13:40:51;101317.16;;;15.86
67599;BMP280;62026;39.230;9.122;2023-04-06T13:43:17;101307.53;;;15.61
67599;BMP280;62026;39.230;9.122;2023-04-06T13:45:52;101309.63;;;15.29
67599;BMP280;62026;39.230;9.122;2023-04-06T13:48:20;101305.34;;;15.70
67599;BMP280;62026;39.230;9.122;2023-04-06T13:50:46;101308.75;;;16.12
67599;BMP280;62026;39.230;9.122;2023-04-06T13:53:13;101314.50;;;15.86
67599;BMP280;62026;39.230;9.122;2023-04-06T13:55:39;101311.06;;;16.20
67599;BMP280;62026;39.230;9.122;2023-04-06T13:58:05;101308.91;;;15.75
67599;BMP280;62026;39.230;9.122;2023-04-06T14:00:31;101304.66;;;15.86
67599;BMP280;62026;39.230;9.122;2023-04-06T14:02:57;101297.63;;;16.15
67599;BMP280;62026;39.230;9.122;2023-04-06T14:05:23;101304.53;;;15.69
67599;BMP280;62026;39.230;9.122;2023-04-06T14:07:50;101303.72;;;15.80
67599;BMP280;62026;39.230;9.122;2023-04-06T14:10:16;101301.31;;;16.14